createdAt,value
2019-03-17T00:00:10.353Z,38.80
2019-03-17T00:02:38.896Z,36.00
2019-03-17T00:05:07.529Z,33.83
2019-03-17T00:07:36.006Z,29.60
2019-03-17T00:10:04.944Z,38.75
2019-03-17T00:12:33.457Z,35.00
2019-03-17T00:15:05.732Z,36.80
2019-03-17T00:17:32.658Z,42.43
2019-03-17T00:20:01.137Z,35.33
2019-03-17T00:22:29.642Z,31.42
2019-03-17T00:25:08.428Z,29.20
2019-03-17T00:27:28.383Z,35.45
2019-03-17T00:29:56.860Z,32.38
2019-03-17T00:32:25.351Z,34.75
2019-03-17T00:34:53.824Z,33.83
2019-03-17T00:37:22.329Z,30.35
2019-03-17T00:39:50.783Z,32.65
2019-03-17T00:42:19.281Z,33.50
2019-03-17T00:44:47.752Z,35.28
2019-03-17T00:47:16.238Z,33.53
2019-03-17T00:49:44.717Z,31.20
2019-03-17T00:52:13.216Z,34.05
2019-03-17T00:54:41.691Z,30.70
2019-03-17T00:57:10.446Z,28.38
2019-03-17T00:59:38.928Z,25.85
2019-03-17T01:02:07.427Z,31.37
2019-03-17T01:04:35.902Z,31.27
2019-03-17T01:07:04.471Z,32.98
2019-03-17T01:09:32.970Z,29.50
2019-03-17T01:12:01.608Z,35.25
2019-03-17T01:14:30.169Z,34.10
2019-03-17T01:16:58.670Z,38.67
2019-03-17T01:19:27.237Z,39.42
2019-03-17T01:21:55.743Z,35.52
2019-03-17T01:24:24.329Z,35.60
2019-03-17T01:26:52.783Z,36.90
2019-03-17T01:29:21.285Z,33.90
2019-03-17T01:31:49.754Z,35.83
2019-03-17T01:34:18.256Z,39.83
2019-03-17T01:36:46.742Z,35.58
2019-03-17T01:39:15.234Z,33.65
2019-03-17T01:41:43.704Z,40.17
2019-03-17T01:44:12.265Z,31.70
2019-03-17T01:46:40.728Z,32.80
2019-03-17T01:49:09.228Z,35.10
2019-03-17T01:51:37.765Z,35.00
2019-03-17T01:54:06.315Z,31.27
2019-03-17T01:56:34.847Z,29.77
2019-03-17T01:59:03.400Z,27.45
2019-03-17T02:01:31.856Z,28.98
2019-03-17T02:04:00.331Z,30.27
2019-03-17T02:06:28.812Z,32.10
2019-03-17T02:08:57.290Z,35.58
2019-03-17T02:11:25.760Z,30.72
2019-03-17T02:13:54.240Z,28.32
2019-03-17T02:16:22.715Z,31.50
2019-03-17T02:18:51.219Z,30.55
2019-03-17T02:23:46.166Z,26.82
2019-03-17T02:26:14.642Z,31.00
2019-03-17T02:28:43.279Z,30.10
2019-03-17T02:31:11.784Z,29.67
2019-03-17T02:33:40.281Z,29.07
2019-03-17T02:36:08.756Z,29.57
2019-03-17T02:38:37.235Z,29.48
2019-03-17T02:41:05.788Z,29.63
2019-03-17T02:43:34.269Z,26.27
2019-03-17T02:46:03.209Z,25.57
2019-03-17T02:48:31.711Z,23.67
2019-03-17T02:51:00.188Z,21.82
2019-03-17T02:53:28.661Z,23.98
2019-03-17T02:55:57.172Z,25.20
2019-03-17T02:58:25.650Z,27.67
2019-03-17T03:00:54.154Z,25.77
2019-03-17T03:03:22.620Z,27.02
2019-03-17T03:05:55.163Z,27.07
2019-03-17T03:08:21.276Z,28.20
2019-03-17T03:10:49.755Z,31.77
2019-03-17T03:13:18.242Z,44.27
2019-03-17T03:15:46.711Z,30.55
2019-03-17T03:18:15.213Z,49.75
2019-03-17T03:20:43.684Z,49.83
2019-03-17T03:23:12.162Z,37.17
2019-03-17T03:25:40.648Z,33.80
2019-03-17T03:28:09.156Z,50.78
2019-03-17T03:30:37.658Z,56.33
2019-03-17T03:33:06.126Z,48.23
2019-03-17T03:35:34.600Z,38.00
2019-03-17T03:38:03.072Z,49.83
2019-03-17T03:40:31.616Z,38.83
2019-03-17T03:43:00.103Z,37.05
2019-03-17T03:45:28.600Z,45.12
2019-03-17T03:47:57.078Z,40.38
2019-03-17T03:50:25.557Z,43.33
2019-03-17T03:52:54.039Z,37.83
2019-03-17T03:55:22.498Z,42.17
2019-03-17T03:57:51.028Z,41.83
2019-03-17T04:00:19.561Z,34.45
2019-03-17T04:02:48.061Z,41.33
2019-03-17T04:05:16.594Z,36.95
2019-03-17T04:07:45.089Z,37.42
2019-03-17T04:10:13.726Z,33.95
2019-03-17T04:12:42.221Z,30.48
2019-03-17T04:15:11.537Z,28.35
2019-03-17T04:17:40.106Z,28.32
2019-03-17T04:20:11.126Z,30.12
2019-03-17T04:22:39.572Z,28.37
2019-03-17T04:25:08.349Z,29.70
2019-03-17T04:27:36.932Z,26.87
2019-03-17T04:30:08.396Z,28.27
2019-03-17T04:32:36.840Z,26.80
2019-03-17T04:35:06.780Z,27.77
2019-03-17T04:37:35.321Z,30.95
2019-03-17T04:40:04.687Z,28.07
2019-03-17T04:42:33.160Z,29.05
2019-03-17T04:45:01.669Z,28.98
2019-03-17T04:47:30.213Z,28.92
2019-03-17T04:49:58.672Z,30.52
2019-03-17T04:52:27.501Z,28.98
2019-03-17T04:54:55.977Z,30.00
2019-03-17T04:57:24.458Z,28.10
2019-03-17T04:59:52.975Z,31.37
2019-03-17T05:02:21.453Z,27.42
2019-03-17T05:04:49.933Z,28.60
2019-03-17T05:07:18.422Z,27.05
2019-03-17T05:09:46.920Z,26.33
2019-03-17T05:12:15.429Z,26.95
2019-03-17T05:14:43.933Z,24.72
2019-03-17T05:17:12.396Z,22.40
2019-03-17T05:19:40.875Z,25.23
2019-03-17T05:22:09.353Z,24.18
2019-03-17T05:24:37.851Z,31.80
2019-03-17T05:27:06.329Z,26.50
2019-03-17T05:29:34.802Z,25.23
2019-03-17T05:32:03.294Z,25.17
2019-03-17T05:34:31.809Z,27.87
2019-03-17T05:37:05.990Z,25.62
2019-03-17T05:39:30.470Z,26.05
2019-03-17T05:41:58.955Z,25.85
2019-03-17T05:44:27.438Z,31.05
2019-03-17T05:46:55.920Z,27.05
2019-03-17T05:49:24.387Z,29.60
2019-03-17T05:51:52.895Z,32.25
2019-03-17T05:54:22.885Z,46.58
2019-03-17T05:56:51.356Z,67.92
2019-03-17T05:59:19.890Z,69.55
2019-03-17T06:01:48.390Z,63.00
2019-03-17T06:04:16.865Z,72.92
2019-03-17T06:06:45.332Z,79.03
2019-03-17T06:09:13.833Z,64.25
2019-03-17T06:11:42.317Z,59.05
2019-03-17T06:14:10.835Z,59.73
2019-03-17T06:16:39.315Z,56.05
2019-03-17T06:19:10.077Z,51.80
2019-03-17T06:21:38.541Z,42.05
2019-03-17T06:24:07.429Z,51.42
2019-03-17T06:26:35.960Z,41.23
2019-03-17T06:29:04.429Z,39.20
2019-03-17T06:31:32.928Z,30.80
2019-03-17T06:34:01.427Z,29.98
2019-03-17T06:36:29.895Z,34.48
2019-03-17T06:38:58.386Z,29.10
2019-03-17T06:41:26.856Z,22.35
2019-03-17T06:43:55.389Z,25.35
2019-03-17T06:46:23.858Z,25.72
2019-03-17T06:48:52.344Z,33.55
2019-03-17T06:51:20.824Z,31.27
2019-03-17T06:53:56.414Z,32.28
2019-03-17T06:56:19.517Z,28.10
2019-03-17T06:58:48.017Z,39.15
2019-03-17T07:01:16.501Z,63.17
2019-03-17T07:03:44.982Z,41.73
2019-03-17T07:06:13.463Z,24.37
2019-03-17T07:08:41.930Z,49.60
2019-03-17T07:11:11.308Z,42.23
2019-03-17T07:13:39.752Z,18.30
2019-03-17T07:16:08.257Z,50.80
2019-03-17T07:18:36.722Z,20.30
2019-03-17T07:21:05.298Z,41.58
2019-03-17T07:23:34.436Z,23.83
2019-03-17T07:26:04.628Z,16.23
2019-03-17T07:28:33.110Z,32.93
2019-03-17T07:31:01.583Z,38.92
2019-03-17T07:33:30.063Z,16.62
2019-03-17T07:35:58.579Z,20.17
2019-03-17T07:38:27.190Z,31.40
2019-03-17T07:40:55.633Z,23.67
2019-03-17T07:43:24.113Z,118.22
2019-03-17T07:45:52.618Z,70.52
2019-03-17T07:48:21.093Z,19.40
2019-03-17T07:50:49.602Z,19.87
2019-03-17T07:53:18.086Z,13.28
2019-03-17T07:55:46.589Z,15.15
2019-03-17T07:58:15.132Z,106.95
2019-03-17T08:00:43.638Z,34.63
2019-03-17T08:03:12.120Z,21.27
2019-03-17T08:05:40.617Z,19.82
2019-03-17T08:08:09.992Z,36.50
2019-03-17T08:10:38.694Z,13.85
2019-03-17T08:13:07.354Z,12.00
2019-03-17T08:15:35.896Z,16.67
2019-03-17T08:18:04.374Z,11.75
2019-03-17T08:20:32.875Z,10.58
2019-03-17T08:23:01.379Z,11.88
2019-03-17T08:25:29.916Z,10.03
2019-03-17T08:27:58.393Z,10.70
2019-03-17T08:30:26.868Z,10.60
2019-03-17T08:32:55.346Z,9.75
2019-03-17T08:35:23.830Z,36.60
2019-03-17T08:37:52.315Z,70.17
2019-03-17T08:40:20.818Z,45.43
2019-03-17T08:42:49.371Z,74.32
2019-03-17T08:45:17.894Z,43.33
2019-03-17T08:47:57.340Z,40.90
2019-03-17T08:50:16.588Z,21.77
2019-03-17T08:52:45.071Z,11.40
2019-03-17T08:55:13.651Z,10.65
2019-03-17T08:57:42.189Z,7.40
2019-03-17T09:00:18.908Z,8.75
2019-03-17T09:02:47.404Z,11.70
2019-03-17T09:05:16.607Z,22.32
2019-03-17T09:07:45.152Z,8.40
2019-03-17T09:10:14.882Z,14.63
2019-03-17T09:12:43.411Z,23.62
2019-03-17T09:15:12.152Z,10.70
2019-03-17T09:17:40.735Z,16.75
2019-03-17T09:20:13.915Z,9.95
2019-03-17T09:22:42.360Z,16.87
2019-03-17T09:25:12.016Z,12.82
2019-03-17T09:27:40.565Z,12.47
2019-03-17T09:30:20.062Z,21.33
2019-03-17T09:32:48.576Z,19.73
2019-03-17T09:35:17.116Z,7.72
2019-03-17T09:37:45.616Z,7.00
2019-03-17T09:40:15.530Z,14.30
2019-03-17T09:42:44.087Z,24.98
2019-03-17T09:45:13.631Z,13.68
2019-03-17T09:47:42.478Z,27.52
2019-03-17T09:50:16.210Z,12.55
2019-03-17T09:52:44.784Z,6.75
2019-03-17T09:55:13.497Z,16.73
2019-03-17T09:57:41.975Z,12.23
2019-03-17T10:29:52.206Z,18.62
2019-03-17T10:32:33.077Z,18.40
2019-03-17T10:35:01.581Z,10.23
2019-03-17T10:37:30.060Z,7.87
2019-03-17T10:39:58.547Z,15.30
2019-03-17T10:42:27.023Z,8.13
2019-03-17T10:44:57.030Z,9.83
2019-03-17T10:47:25.517Z,11.57
2019-03-17T10:49:54.021Z,9.58
2019-03-17T10:52:22.489Z,5.90
2019-03-17T10:54:52.529Z,7.60
2019-03-17T10:57:21.004Z,6.30
2019-03-17T10:59:49.514Z,8.00
2019-03-17T11:02:18.122Z,6.75
2019-03-17T11:04:46.719Z,7.67
2019-03-17T11:07:15.287Z,9.08
2019-03-17T11:09:43.778Z,9.63
2019-03-17T11:12:12.325Z,33.50
2019-03-17T11:14:40.810Z,17.57
2019-03-17T11:17:09.316Z,20.72
2019-03-17T11:19:37.795Z,13.32
2019-03-17T11:22:06.304Z,21.60
2019-03-17T11:24:34.882Z,15.03
2019-03-17T11:27:03.358Z,21.70
2019-03-17T11:29:31.873Z,25.35
2019-03-17T11:32:00.386Z,31.85
2019-03-17T11:34:28.857Z,27.13
2019-03-17T11:36:57.365Z,27.37
2019-03-17T11:39:37.295Z,22.20
2019-03-17T11:41:56.070Z,15.43
2019-03-17T11:44:24.549Z,11.20
2019-03-17T11:46:53.134Z,16.15
2019-03-17T11:49:21.688Z,15.28
2019-03-17T11:51:50.227Z,16.52
2019-03-17T11:54:18.710Z,25.60
2019-03-17T11:56:47.188Z,19.50
2019-03-17T11:59:15.695Z,34.80
2019-03-17T12:01:44.165Z,19.65
2019-03-17T12:04:12.676Z,33.95
2019-03-17T12:06:41.219Z,16.37
2019-03-17T12:09:09.735Z,19.42
2019-03-17T12:11:38.223Z,32.08
2019-03-17T12:14:09.701Z,24.02
2019-03-17T12:16:37.075Z,23.40
2019-03-17T12:19:05.694Z,14.98
2019-03-17T12:21:34.208Z,23.00
2019-03-17T12:24:02.957Z,17.48
2019-03-17T12:26:31.502Z,13.20
2019-03-17T12:28:59.999Z,33.73
2019-03-17T12:31:30.038Z,15.98
2019-03-17T12:33:58.521Z,18.45
2019-03-17T12:36:26.995Z,17.35
2019-03-17T12:38:55.556Z,22.75
2019-03-17T12:41:24.032Z,19.40
2019-03-17T12:43:52.586Z,6.10
2019-03-17T12:46:21.056Z,10.63
2019-03-17T12:48:49.535Z,5.85
2019-03-17T12:51:18.101Z,8.98
2019-03-17T12:53:46.603Z,6.95
2019-03-17T12:56:15.166Z,14.07
2019-03-17T12:58:43.662Z,9.98
2019-03-17T13:01:12.142Z,15.13
2019-03-17T13:03:40.670Z,11.80
2019-03-17T13:06:11.861Z,17.55
2019-03-17T13:08:40.328Z,5.05
2019-03-17T13:11:10.494Z,8.50
2019-03-17T13:13:38.979Z,4.05
2019-03-17T13:16:07.568Z,3.85
2019-03-17T13:18:36.037Z,4.55
2019-03-17T13:21:04.522Z,8.38
2019-03-17T13:23:33.026Z,19.75
2019-03-17T13:26:01.502Z,12.05
2019-03-17T13:28:30.153Z,12.50
2019-03-17T13:30:58.701Z,7.85
2019-03-17T13:33:27.212Z,18.70
2019-03-17T13:35:55.731Z,47.03
2019-03-17T13:38:24.274Z,7.90
2019-03-17T13:40:52.775Z,15.72
2019-03-17T13:43:21.314Z,11.85
2019-03-17T13:45:51.283Z,7.80
2019-03-17T13:48:19.768Z,5.33
2019-03-17T13:50:50.428Z,4.37
2019-03-17T13:53:18.897Z,10.48
2019-03-17T13:55:47.366Z,7.58
2019-03-17T13:58:15.878Z,12.55
2019-03-17T14:00:44.533Z,11.95
2019-03-17T14:03:13.666Z,14.90
2019-03-17T14:05:42.172Z,6.33
2019-03-17T14:08:10.875Z,16.40
2019-03-17T14:10:41.421Z,5.67
2019-03-17T14:13:11.128Z,17.82
2019-03-17T14:15:41.155Z,10.85
2019-03-17T14:18:09.667Z,20.43
2019-03-17T14:20:38.196Z,55.28
2019-03-17T14:23:06.696Z,44.85
2019-03-17T14:25:36.937Z,51.00
2019-03-17T14:28:05.694Z,42.23
2019-03-17T14:30:34.301Z,39.50
2019-03-17T14:33:04.387Z,42.75
2019-03-17T14:35:32.872Z,32.28
2019-03-17T14:38:01.445Z,22.30
2019-03-17T14:40:31.319Z,35.40
2019-03-17T14:42:59.938Z,28.42
2019-03-17T14:45:28.449Z,19.45
2019-03-17T14:47:57.091Z,16.15
2019-03-17T14:50:26.116Z,30.05
2019-03-17T14:52:55.363Z,31.23
2019-03-17T14:55:24.079Z,24.57
2019-03-17T14:57:52.594Z,37.80
2019-03-17T15:00:22.010Z,44.40
2019-03-17T15:02:50.654Z,30.10
2019-03-17T15:05:19.193Z,31.33
2019-03-17T15:07:47.703Z,28.23
2019-03-17T15:10:22.573Z,39.00
2019-03-17T15:12:52.696Z,34.65
2019-03-17T15:15:22.221Z,27.05
2019-03-17T15:17:50.788Z,39.20
2019-03-17T15:20:20.614Z,19.45
2019-03-17T15:22:49.180Z,35.20
2019-03-17T15:25:17.962Z,40.55
2019-03-17T15:27:46.437Z,19.27
2019-03-17T15:30:23.251Z,49.45
2019-03-17T15:32:51.792Z,41.37
2019-03-17T15:35:20.307Z,41.55
2019-03-17T15:37:48.954Z,50.90
2019-03-17T15:40:22.073Z,24.23
2019-03-17T15:42:50.723Z,41.70
2019-03-17T15:45:20.676Z,38.95
2019-03-17T15:47:49.216Z,32.80
2019-03-17T15:50:22.028Z,38.42
2019-03-17T15:52:50.658Z,72.80
2019-03-17T15:55:19.295Z,43.83
2019-03-17T15:57:47.868Z,21.40
2019-03-17T16:00:26.274Z,30.37
2019-03-17T16:02:53.563Z,20.75
2019-03-17T16:05:22.381Z,113.37
2019-03-17T16:07:51.016Z,127.22
2019-03-17T16:10:27.213Z,293.67
2019-03-17T16:12:55.777Z,72.45
2019-03-17T16:15:24.254Z,96.67
2019-03-17T16:17:52.750Z,53.60
2019-03-17T16:20:28.110Z,71.87
2019-03-17T16:22:56.888Z,90.50
2019-03-17T16:25:27.749Z,54.65
2019-03-17T16:27:56.326Z,31.45
2019-03-17T16:30:30.342Z,32.63
2019-03-17T16:32:58.948Z,12.33
2019-03-17T16:35:27.513Z,10.03
2019-03-17T16:37:56.239Z,10.13
2019-03-17T16:40:31.583Z,12.20
2019-03-17T16:43:00.167Z,11.70
2019-03-17T16:45:28.997Z,18.30
2019-03-17T16:47:57.584Z,75.20
2019-03-17T16:50:26.297Z,83.78
2019-03-17T16:52:54.778Z,103.87
2019-03-17T16:55:23.323Z,85.07
2019-03-17T16:57:51.888Z,108.70
2019-03-17T17:00:25.529Z,68.65
2019-03-17T17:02:54.192Z,62.03
2019-03-17T17:05:23.822Z,85.20
2019-03-17T17:07:52.385Z,61.50
2019-03-17T17:10:30.797Z,128.62
2019-03-17T17:12:59.480Z,84.55
2019-03-17T17:15:32.312Z,116.35
2019-03-17T17:18:00.799Z,184.57
2019-03-17T17:20:30.655Z,122.17
2019-03-17T17:22:59.205Z,141.68
2019-03-17T17:25:27.720Z,105.25
2019-03-17T17:27:56.501Z,97.47
2019-03-17T17:30:25.006Z,64.65
2019-03-17T17:32:53.548Z,75.52
2019-03-17T17:35:22.051Z,121.47
2019-03-17T17:37:50.730Z,56.20
2019-03-17T17:40:23.098Z,52.83
2019-03-17T17:42:51.662Z,59.83
2019-03-17T17:45:25.140Z,90.83
2019-03-17T17:47:53.634Z,58.28
2019-03-17T17:50:23.452Z,70.45
2019-03-17T17:52:51.967Z,59.27
2019-03-17T17:55:21.535Z,58.42
2019-03-17T17:57:52.613Z,52.73
2019-03-17T18:00:22.898Z,69.30
2019-03-17T18:02:52.931Z,125.40
2019-03-17T18:05:21.483Z,105.58
2019-03-17T18:07:49.986Z,162.88
2019-03-17T18:10:19.307Z,101.53
2019-03-17T18:12:47.880Z,88.03
2019-03-17T18:15:27.148Z,79.55
2019-03-17T18:17:55.641Z,69.40
2019-03-17T18:20:24.194Z,55.00
2019-03-17T18:22:52.847Z,168.28
2019-03-17T18:25:24.286Z,193.15
2019-03-17T18:27:52.768Z,191.45
2019-03-17T18:30:23.751Z,225.10
2019-03-17T18:32:52.419Z,141.03
2019-03-17T18:35:21.067Z,145.60
2019-03-17T18:37:51.067Z,108.15
2019-03-17T18:40:20.811Z,120.97
2019-03-17T18:42:49.404Z,114.42
2019-03-17T18:45:25.449Z,120.62
2019-03-17T18:47:53.996Z,63.40
2019-03-17T18:50:22.473Z,96.50
2019-03-17T18:52:51.856Z,87.10
2019-03-17T18:55:20.333Z,58.13
2019-03-17T18:57:49.040Z,72.42
2019-03-17T19:00:19.781Z,37.90
2019-03-17T19:02:48.550Z,50.67
2019-03-17T19:05:19.987Z,38.67
2019-03-17T19:07:48.125Z,50.98
2019-03-17T19:10:21.201Z,45.85
2019-03-17T19:12:50.917Z,59.42
2019-03-17T19:15:21.336Z,64.45
2019-03-17T19:17:50.083Z,83.80
2019-03-17T19:20:19.528Z,75.80
2019-03-17T19:22:48.424Z,50.70
2019-03-17T19:25:21.968Z,62.15
2019-03-17T19:27:52.025Z,52.58
2019-03-17T19:30:23.903Z,52.17
2019-03-17T19:32:52.454Z,65.47
2019-03-17T19:35:21.258Z,77.50
2019-03-17T19:37:49.920Z,71.95
2019-03-17T19:40:25.398Z,68.05
2019-03-17T19:42:59.374Z,42.33
2019-03-17T19:45:24.389Z,47.95
2019-03-17T19:47:53.090Z,55.12
2019-03-17T19:50:22.486Z,71.42
2019-03-17T19:52:55.150Z,98.15
2019-03-17T19:55:23.632Z,79.27
2019-03-17T19:57:52.120Z,74.90
2019-03-17T20:00:21.649Z,79.65
2019-03-17T20:02:50.157Z,72.40
2019-03-17T20:05:18.633Z,66.33
2019-03-17T20:07:47.145Z,60.48
2019-03-17T20:10:18.703Z,63.48
2019-03-17T20:12:47.183Z,84.58
2019-03-17T20:15:15.679Z,88.92
2019-03-17T20:17:44.177Z,93.07
2019-03-17T20:20:14.208Z,129.57
2019-03-17T20:22:42.822Z,99.32
2019-03-17T20:25:11.430Z,120.90
2019-03-17T20:27:39.903Z,141.28
2019-03-17T20:30:14.641Z,140.47
2019-03-17T20:32:43.273Z,166.00
2019-03-17T20:35:13.006Z,233.72
2019-03-17T20:37:41.524Z,116.65
2019-03-17T20:40:13.442Z,113.72
2019-03-17T20:45:14.012Z,125.07
2019-03-17T20:47:42.705Z,114.22
2019-03-17T20:50:15.261Z,123.95
2019-03-17T20:52:43.763Z,138.85
2019-03-17T20:55:12.922Z,153.53
2019-03-17T20:57:41.637Z,183.60
2019-03-17T21:00:20.304Z,176.93
2019-03-17T21:02:48.917Z,177.82
2019-03-17T21:05:17.627Z,265.25
2019-03-17T21:07:46.211Z,138.92
2019-03-17T21:10:16.572Z,131.47
2019-03-17T21:12:45.186Z,131.43
2019-03-17T21:15:16.013Z,160.72
2019-03-17T21:17:44.495Z,281.47
2019-03-17T21:20:24.151Z,219.25
2019-03-17T21:22:52.621Z,162.50
2019-03-17T21:25:21.169Z,98.60
2019-03-17T21:27:49.674Z,24.25
2019-03-17T21:30:27.095Z,18.87
2019-03-17T21:32:55.546Z,15.30
2019-03-17T21:35:24.045Z,25.82
2019-03-17T21:37:52.542Z,9.18
2019-03-17T21:40:21.082Z,17.92
2019-03-17T21:42:50.481Z,16.25
2019-03-17T21:45:19.027Z,23.25
2019-03-17T21:47:47.487Z,12.55
2019-03-17T21:50:17.329Z,10.25
2019-03-17T21:52:45.870Z,6.75
2019-03-17T21:55:14.713Z,16.00
2019-03-17T21:57:43.203Z,11.12
2019-03-17T22:00:19.318Z,8.08
2019-03-17T22:02:49.576Z,8.10
2019-03-17T22:05:18.198Z,6.35
2019-03-17T22:07:51.047Z,6.03
2019-03-17T22:10:18.399Z,7.97
2019-03-17T22:12:47.003Z,9.55
2019-03-17T22:15:16.439Z,8.80
2019-03-17T22:17:45.024Z,8.05
2019-03-17T22:20:17.066Z,7.05
2019-03-17T22:22:45.617Z,6.62
2019-03-17T22:25:17.433Z,9.25
2019-03-17T22:27:45.906Z,6.42
2019-03-17T22:30:20.138Z,10.48
2019-03-17T22:32:48.764Z,8.13
2019-03-17T22:35:17.301Z,15.72
2019-03-17T22:37:45.774Z,7.22
2019-03-17T22:40:18.233Z,7.10
2019-03-17T22:42:47.066Z,4.30
2019-03-17T22:45:17.269Z,10.53
2019-03-17T22:47:45.718Z,15.20
2019-03-17T22:50:18.916Z,19.98
2019-03-17T22:52:47.665Z,27.93
2019-03-17T22:55:16.680Z,28.62
2019-03-17T22:57:45.176Z,12.65
2019-03-17T23:00:26.220Z,10.58
2019-03-17T23:02:54.685Z,29.07
2019-03-17T23:05:23.176Z,28.12
2019-03-17T23:07:51.645Z,26.57
2019-03-17T23:10:20.141Z,30.48
2019-03-17T23:12:48.616Z,16.37
2019-03-17T23:15:17.170Z,5.33
2019-03-17T23:17:45.638Z,10.55
2019-03-17T23:20:15.885Z,11.10
2019-03-17T23:22:44.827Z,8.78
2019-03-17T23:25:13.856Z,10.53
2019-03-17T23:27:42.335Z,5.17
2019-03-17T23:30:14.839Z,3.60
2019-03-17T23:32:43.329Z,14.20
2019-03-17T23:35:11.934Z,18.10
2019-03-17T23:37:40.417Z,10.80
2019-03-17T23:40:13.545Z,18.23
2019-03-17T23:42:42.024Z,8.10
2019-03-17T23:45:12.037Z,17.65
2019-03-17T23:47:40.533Z,32.90
2019-03-17T23:50:11.320Z,7.58
2019-03-17T23:52:39.791Z,38.78
2019-03-17T23:55:13.451Z,42.00
2019-03-17T23:57:41.971Z,5.15
